createdAt,value
2019-02-16T00:03:22.715Z,82.00
2019-02-16T00:05:58.065Z,81.80
2019-02-16T00:08:33.388Z,82.30
2019-02-16T00:11:08.730Z,81.40
2019-02-16T00:13:44.070Z,81.00
2019-02-16T00:16:20.019Z,80.80
2019-02-16T00:24:08.112Z,81.50
2019-02-16T00:26:43.161Z,80.20
2019-02-16T00:29:19.915Z,80.50
2019-02-16T00:31:54.950Z,80.60
2019-02-16T00:34:32.165Z,80.70
2019-02-16T00:37:10.965Z,80.70
2019-02-16T00:39:49.586Z,80.90
2019-02-16T00:42:25.646Z,80.50
2019-02-16T00:47:37.540Z,80.50
2019-02-16T00:50:19.954Z,80.20
2019-02-16T00:52:54.982Z,80.20
2019-02-16T00:58:07.217Z,80.50
2019-02-16T01:00:44.609Z,79.60
2019-02-16T01:03:20.062Z,79.10
2019-02-16T01:05:55.507Z,78.90
2019-02-16T01:08:30.850Z,78.50
2019-02-16T01:13:40.729Z,78.30
2019-02-16T01:18:50.298Z,78.90
2019-02-16T01:21:25.622Z,78.10
2019-02-16T01:24:00.948Z,78.10
2019-02-16T01:26:35.960Z,78.00
2019-02-16T01:29:11.239Z,77.90
2019-02-16T01:31:46.281Z,77.90
2019-02-16T01:34:21.294Z,78.00
2019-02-16T01:36:56.330Z,78.40
2019-02-16T01:39:31.345Z,78.40
2019-02-16T01:42:07.179Z,78.50
2019-02-16T01:44:42.186Z,78.60
2019-02-16T01:47:17.497Z,78.80
2019-02-16T01:49:52.528Z,79.00
2019-02-16T01:52:27.801Z,79.30
2019-02-16T01:55:02.818Z,79.20
2019-02-16T01:57:38.851Z,79.30
2019-02-16T02:00:13.890Z,79.70
2019-02-16T02:02:48.915Z,79.70
2019-02-16T02:05:23.946Z,80.20
2019-02-16T02:07:59.082Z,80.50
2019-02-16T02:10:34.204Z,80.40
2019-02-16T02:13:09.238Z,80.50
2019-02-16T02:15:44.273Z,80.30
2019-02-16T02:18:19.316Z,80.10
2019-02-16T02:20:54.439Z,80.00
2019-02-16T02:23:29.463Z,80.10
2019-02-16T02:26:04.773Z,80.20
2019-02-16T02:28:39.847Z,80.30
2019-02-16T02:31:14.858Z,80.40
2019-02-16T02:33:50.184Z,80.50
2019-02-16T02:36:26.540Z,80.90
2019-02-16T02:39:01.574Z,81.30
2019-02-16T02:41:38.218Z,81.60
2019-02-16T02:44:14.227Z,82.10
2019-02-16T02:46:49.260Z,82.30
2019-02-16T02:49:24.274Z,82.50
2019-02-16T02:51:59.637Z,82.70
2019-02-16T02:54:34.677Z,82.80
2019-02-16T02:59:44.680Z,83.30
2019-02-16T03:02:19.899Z,83.00
2019-02-16T03:10:05.770Z,83.20
2019-02-16T03:12:42.429Z,83.10
2019-02-16T03:15:18.454Z,83.10
2019-02-16T03:17:53.473Z,83.60
2019-02-16T03:20:28.481Z,83.70
2019-02-16T03:23:16.635Z,84.20
2019-02-16T03:26:14.210Z,84.30
2019-02-16T03:31:36.399Z,84.80
2019-02-16T03:34:27.878Z,85.40
2019-02-16T03:37:26.781Z,86.00
2019-02-16T03:40:02.195Z,85.40
2019-02-16T03:42:37.269Z,85.70
2019-02-16T03:45:12.294Z,85.90
2019-02-16T03:47:47.320Z,85.90
2019-02-16T03:50:22.368Z,86.20
2019-02-16T03:52:57.703Z,86.80
2019-02-16T03:58:07.324Z,87.00
2019-02-16T04:00:42.366Z,87.40
2019-02-16T04:03:17.442Z,87.60
2019-02-16T04:05:52.771Z,87.60
2019-02-16T04:08:28.118Z,87.50
2019-02-16T04:11:04.108Z,87.60
2019-02-16T04:13:39.133Z,87.60
2019-02-16T04:16:14.556Z,87.60
2019-02-16T04:18:49.894Z,87.30
2019-02-16T04:21:25.008Z,87.50
2019-02-16T04:24:00.349Z,87.50
2019-02-16T04:26:36.434Z,87.60
2019-02-16T04:29:11.572Z,87.70
2019-02-16T04:31:46.672Z,88.00
2019-02-16T04:34:23.960Z,89.20
2019-02-16T04:39:33.766Z,88.90
2019-02-16T04:42:08.992Z,88.50
2019-02-16T04:47:19.416Z,89.20
2019-02-16T04:49:54.702Z,88.80
2019-02-16T04:55:07.550Z,88.60
2019-02-16T04:57:42.569Z,88.50
2019-02-16T05:00:18.271Z,88.30
2019-02-16T05:02:53.318Z,88.40
2019-02-16T05:05:28.347Z,88.20
2019-02-16T05:08:03.476Z,89.00
2019-02-16T05:10:39.509Z,88.30
2019-02-16T05:13:14.528Z,88.40
2019-02-16T05:15:49.571Z,88.30
2019-02-16T05:18:25.027Z,88.10
2019-02-16T05:21:01.063Z,88.00
2019-02-16T05:23:36.146Z,88.00
2019-02-16T05:26:12.163Z,88.10
2019-02-16T05:28:47.187Z,88.00
2019-02-16T05:31:22.322Z,88.00
2019-02-16T05:33:57.337Z,88.10
2019-02-16T05:36:32.372Z,88.00
2019-02-16T05:39:07.388Z,87.90
2019-02-16T05:41:42.415Z,87.80
2019-02-16T05:44:17.729Z,88.00
2019-02-16T05:46:52.766Z,88.10
2019-02-16T05:49:27.801Z,88.20
2019-02-16T05:52:03.146Z,88.00
2019-02-16T05:54:40.133Z,87.90
2019-02-16T05:57:15.195Z,88.10
2019-02-16T06:04:59.983Z,88.00
2019-02-16T06:07:35.311Z,88.40
2019-02-16T06:10:10.917Z,88.20
2019-02-16T06:12:46.302Z,88.30
2019-02-16T06:15:21.986Z,88.30
2019-02-16T06:17:57.742Z,88.20
2019-02-16T06:20:33.317Z,87.90
2019-02-16T06:23:09.755Z,87.90
2019-02-16T06:25:45.319Z,87.60
2019-02-16T06:28:20.974Z,87.50
2019-02-16T06:30:56.030Z,87.20
2019-02-16T06:33:31.388Z,88.00
2019-02-16T06:36:08.982Z,87.90
2019-02-16T06:38:44.026Z,87.00
2019-02-16T06:41:19.467Z,87.00
2019-02-16T06:43:54.814Z,86.80
2019-02-16T06:46:29.820Z,86.70
2019-02-16T06:49:06.601Z,86.50
2019-02-16T06:51:42.569Z,86.60
2019-02-16T06:54:19.450Z,86.60
2019-02-16T06:57:02.681Z,86.30
2019-02-16T06:59:37.725Z,86.40
2019-02-16T07:02:14.957Z,86.70
2019-02-16T07:04:50.247Z,84.20
2019-02-16T07:07:25.375Z,76.10
2019-02-16T07:10:01.360Z,69.40
2019-02-16T07:15:11.466Z,59.90
2019-02-16T07:17:48.583Z,55.90
2019-02-16T07:20:24.030Z,53.10
2019-02-16T07:22:59.055Z,50.30
2019-02-16T07:28:13.766Z,48.50
2019-02-16T07:30:49.091Z,48.70
2019-02-16T07:33:24.546Z,48.30
2019-02-16T07:41:11.041Z,46.80
2019-02-16T07:46:34.564Z,44.70
2019-02-16T07:49:24.057Z,44.30
2019-02-16T07:52:07.278Z,43.60
2019-02-16T07:54:45.174Z,43.60
2019-02-16T07:57:27.733Z,43.20
2019-02-16T08:00:04.473Z,42.40
2019-02-16T08:02:55.565Z,41.10
2019-02-16T08:05:41.675Z,39.20
2019-02-16T08:08:25.920Z,37.90
2019-02-16T08:11:03.014Z,36.80
2019-02-16T08:13:39.979Z,37.00
2019-02-16T08:16:24.418Z,36.90
2019-02-16T08:19:07.981Z,36.80
2019-02-16T08:24:39.074Z,36.70
2019-02-16T08:30:11.840Z,35.70
2019-02-16T08:32:48.538Z,34.40
2019-02-16T08:35:29.134Z,34.10
2019-02-16T08:40:43.863Z,35.60
2019-02-16T08:43:23.314Z,35.20
2019-02-16T08:46:11.867Z,35.00
2019-02-16T08:48:56.338Z,34.20
2019-02-16T08:51:33.515Z,33.90
2019-02-16T08:54:11.660Z,33.40
2019-02-16T08:56:48.516Z,33.40
2019-02-16T08:59:34.439Z,33.20
2019-02-16T09:05:02.305Z,32.90
2019-02-16T09:18:38.382Z,31.20
2019-02-16T09:24:05.947Z,29.90
2019-02-16T09:29:26.790Z,29.20
2019-02-16T09:45:55.355Z,26.30
2019-02-16T09:51:39.874Z,25.70
2019-02-16T09:54:27.817Z,25.50
2019-02-16T09:57:05.034Z,24.90
2019-02-16T10:08:08.494Z,25.10
2019-02-16T10:11:05.953Z,26.60
2019-02-16T10:19:10.617Z,35.70
2019-02-16T10:21:51.843Z,35.30
2019-02-16T10:24:37.582Z,34.50
2019-02-16T10:27:14.803Z,31.20
2019-02-16T10:29:59.911Z,28.50
2019-02-16T10:32:55.315Z,27.20
2019-02-16T10:35:36.716Z,26.40
2019-02-16T10:41:18.834Z,24.90
2019-02-16T10:52:04.120Z,24.60
2019-02-16T10:57:27.911Z,25.70
2019-02-16T11:02:58.963Z,25.60
2019-02-16T11:05:42.838Z,24.90
2019-02-16T11:13:45.460Z,23.90
2019-02-16T11:16:45.230Z,23.50
2019-02-16T11:19:26.972Z,24.10
2019-02-16T11:22:05.264Z,24.80
2019-02-16T11:24:45.771Z,26.00
2019-02-16T11:27:29.212Z,27.70
2019-02-16T11:30:11.364Z,29.60
2019-02-16T11:32:51.647Z,30.50
2019-02-16T11:35:51.580Z,32.10
2019-02-16T11:38:28.411Z,33.20
2019-02-16T11:41:19.020Z,33.40
2019-02-16T11:44:07.007Z,34.60
2019-02-16T11:47:04.207Z,34.60
2019-02-16T11:49:47.132Z,35.20
2019-02-16T11:52:24.908Z,35.80
2019-02-16T11:55:21.531Z,35.80
2019-02-16T11:58:02.229Z,36.10
2019-02-16T12:00:57.063Z,36.80
2019-02-16T12:03:37.011Z,37.10
2019-02-16T12:06:15.851Z,37.70
2019-02-16T12:09:11.490Z,37.30
2019-02-16T12:15:03.750Z,37.20
2019-02-16T12:17:43.617Z,37.70
2019-02-16T12:20:33.435Z,37.70
2019-02-16T12:23:15.792Z,37.80
2019-02-16T12:25:58.694Z,37.50
2019-02-16T12:28:36.161Z,37.60
2019-02-16T12:31:16.265Z,37.90
2019-02-16T12:34:06.723Z,37.90
2019-02-16T12:36:50.144Z,38.50
2019-02-16T12:39:27.339Z,38.30
2019-02-16T12:42:07.897Z,38.00
2019-02-16T12:44:44.711Z,38.50
2019-02-16T12:47:24.333Z,38.00
2019-02-16T12:50:07.758Z,37.70
2019-02-16T12:55:35.695Z,38.10
2019-02-16T12:58:16.102Z,36.70
2019-02-16T13:00:58.166Z,37.10
2019-02-16T13:03:35.102Z,36.90
2019-02-16T13:06:32.026Z,36.70
2019-02-16T13:09:23.189Z,35.70
2019-02-16T13:12:00.249Z,35.30
2019-02-16T13:14:49.788Z,34.50
2019-02-16T13:17:29.747Z,34.00
2019-02-16T13:20:13.603Z,34.40
2019-02-16T13:23:07.875Z,34.20
2019-02-16T13:25:47.716Z,34.40
2019-02-16T13:28:43.860Z,34.60
2019-02-16T13:31:37.423Z,34.30
2019-02-16T13:34:20.587Z,34.10
2019-02-16T13:37:07.729Z,33.90
2019-02-16T13:39:51.232Z,33.70
2019-02-16T13:42:34.009Z,34.10
2019-02-16T13:45:18.279Z,33.90
2019-02-16T13:47:56.029Z,32.30
2019-02-16T13:50:35.648Z,32.60
2019-02-16T13:53:12.391Z,33.00
2019-02-16T13:55:50.113Z,32.00
2019-02-16T13:58:37.038Z,32.10
2019-02-16T14:01:13.810Z,31.40
2019-02-16T14:04:08.215Z,31.40
2019-02-16T14:06:47.778Z,31.80
2019-02-16T14:09:24.542Z,31.70
2019-02-16T14:12:04.529Z,31.30
2019-02-16T14:14:58.813Z,32.40
2019-02-16T14:17:36.567Z,31.90
2019-02-16T14:20:11.752Z,32.30
2019-02-16T14:22:47.027Z,32.60
2019-02-16T14:25:23.901Z,32.60
2019-02-16T14:28:00.077Z,33.00
2019-02-16T14:30:35.647Z,32.70
2019-02-16T14:33:11.387Z,33.10
2019-02-16T14:35:46.798Z,33.00
2019-02-16T14:38:27.364Z,32.90
2019-02-16T14:41:04.762Z,33.50
2019-02-16T14:43:40.567Z,34.10
2019-02-16T14:46:16.033Z,34.90
2019-02-16T14:48:51.242Z,35.90
2019-02-16T14:51:26.550Z,36.80
2019-02-16T14:54:01.964Z,37.00
2019-02-16T14:56:38.734Z,37.20
2019-02-16T14:59:13.820Z,37.20
2019-02-16T15:01:49.424Z,37.40
2019-02-16T15:04:25.083Z,37.40
2019-02-16T15:07:00.517Z,37.40
2019-02-16T15:12:11.552Z,36.60
2019-02-16T15:14:47.713Z,37.70
2019-02-16T15:19:59.347Z,38.60
2019-02-16T15:22:34.791Z,38.30
2019-02-16T15:25:12.052Z,38.60
2019-02-16T15:27:48.192Z,38.70
2019-02-16T15:30:23.583Z,39.20
2019-02-16T15:32:58.981Z,39.10
2019-02-16T15:35:34.185Z,39.30
2019-02-16T15:38:09.318Z,39.60
2019-02-16T15:40:44.555Z,39.70
2019-02-16T15:43:19.655Z,39.90
2019-02-16T15:45:55.771Z,40.60
2019-02-16T15:48:30.979Z,40.20
2019-02-16T15:53:44.482Z,39.60
2019-02-16T15:58:57.956Z,40.60
2019-02-16T16:01:33.172Z,40.60
2019-02-16T16:04:08.266Z,40.50
2019-02-16T16:06:43.845Z,40.20
2019-02-16T16:09:23.261Z,40.20
2019-02-16T16:12:00.906Z,40.80
2019-02-16T16:14:40.624Z,41.00
2019-02-16T16:25:35.831Z,42.40
2019-02-16T16:28:16.690Z,41.90
2019-02-16T16:31:11.587Z,42.30
2019-02-16T16:34:06.361Z,42.50
2019-02-16T16:36:45.915Z,42.50
2019-02-16T16:39:22.727Z,42.70
2019-02-16T16:45:11.100Z,43.00
2019-02-16T16:47:47.833Z,43.40
2019-02-16T16:50:38.064Z,44.00
2019-02-16T16:53:31.033Z,45.10
2019-02-16T16:56:14.317Z,45.50
2019-02-16T16:59:08.599Z,45.90
2019-02-16T17:01:57.216Z,47.00
2019-02-16T17:04:43.468Z,46.60
2019-02-16T17:07:27.282Z,47.10
2019-02-16T17:10:06.835Z,47.50
2019-02-16T17:12:43.622Z,48.60
2019-02-16T17:15:31.851Z,49.00
2019-02-16T17:18:28.130Z,49.30
2019-02-16T17:21:12.036Z,49.60
2019-02-16T17:23:52.151Z,49.80
2019-02-16T17:26:37.778Z,49.50
2019-02-16T17:29:13.840Z,49.30
2019-02-16T17:31:50.891Z,49.60
2019-02-16T17:34:37.286Z,49.80
2019-02-16T17:37:20.871Z,49.40
2019-02-16T17:40:00.419Z,49.30
2019-02-16T17:42:58.036Z,49.20
2019-02-16T17:45:41.655Z,49.40
2019-02-16T17:48:21.271Z,49.80
2019-02-16T17:51:01.106Z,49.90
2019-02-16T17:53:48.411Z,50.00
2019-02-16T17:56:25.234Z,50.10
2019-02-16T17:59:02.699Z,50.30
2019-02-16T18:01:39.465Z,50.20
2019-02-16T18:04:26.018Z,50.10
2019-02-16T18:07:09.028Z,49.90
2019-02-16T18:09:52.306Z,50.30
2019-02-16T18:12:31.920Z,50.40
2019-02-16T18:15:20.017Z,50.70
2019-02-16T18:20:34.849Z,51.30
2019-02-16T18:23:20.790Z,51.70
2019-02-16T18:26:01.334Z,52.10
2019-02-16T18:28:38.372Z,52.20
2019-02-16T18:31:32.596Z,53.20
2019-02-16T18:34:19.550Z,53.70
2019-02-16T18:37:03.219Z,54.50
2019-02-16T18:39:56.518Z,55.00
2019-02-16T18:42:49.529Z,55.20
2019-02-16T18:45:39.423Z,55.40
2019-02-16T18:48:22.816Z,55.10
2019-02-16T18:51:06.815Z,55.10
2019-02-16T18:54:00.042Z,55.20
2019-02-16T18:59:39.411Z,55.50
2019-02-16T19:02:22.036Z,54.50
2019-02-16T19:05:09.534Z,54.20
2019-02-16T19:07:47.914Z,54.10
2019-02-16T19:10:25.996Z,54.50
2019-02-16T19:13:03.041Z,55.10
2019-02-16T19:15:46.799Z,55.00
2019-02-16T19:21:19.603Z,55.70
2019-02-16T19:24:02.962Z,55.90
2019-02-16T19:26:57.340Z,56.20
2019-02-16T19:29:37.127Z,56.00
2019-02-16T19:32:14.164Z,56.30
2019-02-16T19:35:08.662Z,56.40
2019-02-16T19:37:55.777Z,56.20
2019-02-16T19:40:35.904Z,55.70
2019-02-16T19:43:15.484Z,55.50
2019-02-16T19:45:59.716Z,55.40
2019-02-16T19:48:39.752Z,55.50
2019-02-16T19:51:19.207Z,55.60
2019-02-16T19:53:56.183Z,55.60
2019-02-16T19:56:39.802Z,55.40
2019-02-16T19:59:36.147Z,55.20
2019-02-16T20:02:15.327Z,55.60
2019-02-16T20:04:54.982Z,55.70
2019-02-16T20:07:41.484Z,55.40
2019-02-16T20:10:24.601Z,55.60
2019-02-16T20:13:11.348Z,55.80
2019-02-16T20:15:58.711Z,55.80
2019-02-16T20:18:35.783Z,55.90
2019-02-16T20:21:32.140Z,56.10
2019-02-16T20:24:25.588Z,56.20
2019-02-16T20:27:23.354Z,56.30
2019-02-16T20:30:00.432Z,56.50
2019-02-16T20:32:54.873Z,56.80
2019-02-16T20:35:34.704Z,57.30
2019-02-16T20:38:14.421Z,57.40
2019-02-16T20:41:01.235Z,58.20
2019-02-16T20:43:57.421Z,58.10
2019-02-16T20:46:34.760Z,58.30
2019-02-16T20:49:19.783Z,58.60
2019-02-16T20:51:56.520Z,58.50
2019-02-16T20:54:36.320Z,59.00
2019-02-16T20:57:19.941Z,58.80
2019-02-16T21:00:08.196Z,58.80
2019-02-16T21:02:55.039Z,58.70
2019-02-16T21:05:35.632Z,58.80
2019-02-16T21:08:32.369Z,58.90
2019-02-16T21:11:09.055Z,60.00
2019-02-16T21:13:56.154Z,61.30
2019-02-16T21:16:39.777Z,61.30
2019-02-16T21:19:19.714Z,61.50
2019-02-16T21:22:09.126Z,61.90
2019-02-16T21:24:47.335Z,62.10
2019-02-16T21:27:31.127Z,62.30
2019-02-16T21:30:31.474Z,62.60
2019-02-16T21:33:14.854Z,63.30
2019-02-16T21:36:01.305Z,64.80
2019-02-16T21:38:45.234Z,64.60
2019-02-16T21:41:28.804Z,66.20
2019-02-16T21:44:13.773Z,65.90
2019-02-16T21:47:03.281Z,65.80
2019-02-16T21:49:39.989Z,66.60
2019-02-16T21:52:23.948Z,66.90
2019-02-16T21:59:52.554Z,75.60
2019-02-16T22:06:04.581Z,72.00
2019-02-16T22:09:00.881Z,71.80
2019-02-16T22:11:39.552Z,71.30
2019-02-16T22:14:14.702Z,71.40
2019-02-16T22:16:49.821Z,72.10
2019-02-16T22:19:25.885Z,72.60
2019-02-16T22:22:00.987Z,73.00
2019-02-16T22:24:36.158Z,73.70
2019-02-16T22:27:11.681Z,74.90
2019-02-16T22:29:46.905Z,73.80
2019-02-16T22:32:22.375Z,73.60
2019-02-16T22:34:57.433Z,73.60
2019-02-16T22:37:32.589Z,74.10
2019-02-16T22:40:10.091Z,74.70
2019-02-16T22:42:45.149Z,75.70
2019-02-16T22:45:20.762Z,75.30
2019-02-16T22:47:58.126Z,75.00
2019-02-16T22:50:33.602Z,74.90
2019-02-16T22:53:08.693Z,75.00
2019-02-16T22:55:45.078Z,74.50
2019-02-16T22:58:28.543Z,73.90
2019-02-16T23:00:59.067Z,73.80
2019-02-16T23:03:35.749Z,75.60
2019-02-16T23:08:45.486Z,74.80
2019-02-16T23:11:21.622Z,75.20
2019-02-16T23:13:57.696Z,75.30
2019-02-16T23:16:32.829Z,77.30
2019-02-16T23:19:08.282Z,77.40
2019-02-16T23:21:43.710Z,77.70
2019-02-16T23:24:21.765Z,77.90
2019-02-16T23:26:58.247Z,78.20
2019-02-16T23:32:10.189Z,78.70
2019-02-16T23:34:45.265Z,78.10
2019-02-16T23:37:22.629Z,77.50
2019-02-16T23:39:57.657Z,77.50
2019-02-16T23:42:33.865Z,77.40
2019-02-16T23:45:10.220Z,77.20
2019-02-16T23:47:45.531Z,76.60
2019-02-16T23:50:20.850Z,76.00
2019-02-16T23:52:55.940Z,76.00
2019-02-16T23:55:31.266Z,75.80
2019-02-16T23:58:06.322Z,77.10
